Sneads Ferry, NC

12:51 PM EST on February 11, 2016 (GMT -0500)
Chadwick Shores | | Change Station
CLOSE
Current Station
Personal Weather Station
Location: Sneads Ferry, NC
Elevation: 10 ft
Nearby Weather Stations
Active Advisory: Winter Weather Advisory

Elev 10 ft 34.54 °N, 77.37 °W | Updated 5 minutes ago

Clear
Clear
42.6 °F
Feels Like 39 °F
N
6.0
Wind Variable Wind from WNW
Gusts 12.0 mph

Today
High -- | Low -- °F
--% Chance of Precip.
Yesterday
High -- | Low -- °F
Precip. -- in
Pressure 30.22 in
Visibility 10.0 miles
Clouds Clear
Windchill 39 °F
Dew Point 16 °F
Humidity 34%
Rainfall 0.00 in
Snow Depth Not available.
6:59 AM 5:48 PM
Waxing Crescent, 13% visible
METAR KNCA 111656Z AUTO 30013G21KT 10SM CLR 03/M13 A3021 RMK AO2 SLP233 T00331133
Pressure 30.22 in
Visibility 10.0 miles
Clouds Clear
Windchill 39 °F
Dew Point 16 °F
Humidity 34%
Rainfall 0.00 in
Snow Depth Not available.
6:59 AM 5:48 PM
Waxing Crescent, 13% visible
METAR KNCA 111656Z AUTO 30013G21KT 10SM CLR 03/M13 A3021 RMK AO2 SLP233 T00331133

10-Day Weather Forecast

Almanac

Astronomy

Feb. 11, 2016 Rise Set
Actual Time
Civil Twilight
Nautical Twilight
Astronomical Twilight
Moon
Length of Visible Light
Length of Day
Tomorrow will be .
, % of the Moon is Illuminated

Today's Extremes

State Highs State Lows

Community

WunderPhotos

Upload Photos

1,892,113 photos uploaded!

WunderBlog® & News

Nearby

Air Quality

  Air Quality AQ Index Pollutant
Not available.

Snow Depth

Station Depth Elevation

Earthquake Activity

City Distance Mag. Time & Date
Minimum magnitude displayed is 2.5.

Coastal Water Temperatures

Place Temperature

Stations

Nearby Weather Stations

Station Location Temp. Windchill Dew Point Humidity Wind Precip. Elev Updated Type
                   

Watches & Warnings

Winter Weather Advisory
Issued: 11:46 AM EST Feb. 11, 2016 – National Weather Service

... Winter Weather Advisory in effect from 7 am Friday to midnight
EST Friday night...

The National Weather Service in Newport/Morehead City has issued
a Winter Weather Advisory for snow... sleet and freezing rain which
is in effect from 7 am Friday to midnight EST Friday night.

* Accumulations... snow accumulation of up to 1 inch... along with
around a trace of ice.

* Timing... from early morning through late evening Friday.

* Impacts... ice spots will be possible on area roads with bridges
and overpasses being especially hazardous.

Precautionary/preparedness actions...

Listen to NOAA Weather Radio or your local media for the latest
updates on this situation.



11